Huvudsida
METAR-TAF:

METAR-TAF

Flygplatser :

Portos flygplats

Porto, Portugal

latitud: 41-14N, longitud: 008-41W, höjd: 69 m

Aktuellt väderrapport

Denna rapport gjordes för 32 minuter sedan, klockan 22:30 UTC
Vind 7 kt från ost/sydost
Temperatur 16°C
Fuktighet 77%
Tryck 1013 hPa
Sikt 10 km eller mer
Inga moln under 1 500 m eller inga cumulonimbus

METAR: LPPR 162230Z 11007KT CAVOK 16/12 Q1013

Tid: 23:02 (23:02 UTC)

Väderprognos

Denna rapport gjordes för 6 timmar och 2 minuter sedan, klockan 17:00 UTC
Prognos gäller från 16 kl. 18 UTC till 17 kl. 18 UTC
Vind 3 kt varierande vindriktning
Sikt: 6000 m
Blir
från 16 kl. 19 UTC till 16 kl. 21 UTC
Vind 8 kt från ost
Sikt 10 km eller mer
Inga moln under 1 500 m eller inga cumulonimbus

TAF: LPPR 161700Z 1618/1718 VRB03KT 6000 NSC BECMG 1619/1621 10008KT CAVOK

Aktuella väderrapporter och prognoser från 4000 flygplatser (METAR- och TAF-rapporter).

De tillgängliga stationerna syns som gula och röda prickar på kartan.

För musen över prickarna för att se namnen på stationerna.

Klicka sedan för att få väderrapporter och prognoser.

För att ändra kartan: Klicka på de gröna knapparna med ett svart kors på för att zooma in; den gröna knappen med ett streck på för att zooma ut; eller på de gröna pilarna för angränsande kartor.


METAR-TAF: